Time;durP1;ratioP1;P1;durP2;ratioP2;P2;SDS_P1;SDS_P2;PMS_P1;PMS_P2;Temp;Humidity;BMP_temperature;BMP_pressure;BME280_temperature;BME280_humidity;BME280_pressure;Samples;Min_cycle;Max_cycle;Signal;HPM_P1;HPM_P2
2023/08/23 00:02:24;;;;;;;6.70;6.20;;;29.50;54.60;;;;;;5012618;28;20516;-49
2023/08/23 00:04:50;;;;;;;7.30;6.70;;;29.40;54.70;;;;;;5015005;28;20190;-46
2023/08/23 00:07:16;;;;;;;8.47;5.90;;;29.50;54.70;;;;;;5014270;28;20642;-46
2023/08/23 00:09:42;;;;;;;6.67;5.90;;;29.50;54.70;;;;;;5014802;28;20698;-48
2023/08/23 00:12:07;;;;;;;8.27;5.93;;;29.40;54.80;;;;;;5014228;28;20197;-45
2023/08/23 00:14:33;;;;;;;6.40;5.80;;;29.40;54.80;;;;;;5014925;28;20236;-46
2023/08/23 00:16:58;;;;;;;6.47;5.50;;;29.40;55.00;;;;;;5026162;28;20701;-46
2023/08/23 00:19:24;;;;;;;7.87;5.67;;;29.40;54.90;;;;;;5014561;28;20198;-46
2023/08/23 00:21:50;;;;;;;7.10;5.47;;;29.40;54.80;;;;;;5013655;28;20197;-47
2023/08/23 00:24:15;;;;;;;5.50;5.10;;;29.30;54.80;;;;;;5014570;28;20236;-47
2023/08/23 00:26:41;;;;;;;8.57;6.40;;;29.20;54.90;;;;;;5013887;28;20198;-47
2023/08/23 00:29:06;;;;;;;6.07;5.53;;;29.20;55.00;;;;;;5008638;28;20611;-46
2023/08/23 00:31:32;;;;;;;5.90;5.40;;;29.20;55.10;;;;;;5013690;28;20595;-46
2023/08/23 00:33:57;;;;;;;8.40;5.47;;;29.10;55.30;;;;;;5014497;28;20649;-46
2023/08/23 00:36:23;;;;;;;7.20;5.60;;;29.00;55.30;;;;;;5013404;28;20197;-47
2023/08/23 00:38:49;;;;;;;5.67;5.27;;;29.10;55.30;;;;;;5014121;28;20244;-46
2023/08/23 00:41:15;;;;;;;5.20;4.67;;;29.00;55.30;;;;;;5013447;28;20190;-46
2023/08/23 00:43:41;;;;;;;5.30;4.90;;;28.90;55.30;;;;;;5014030;28;20244;-45
2023/08/23 00:46:07;;;;;;;4.93;4.50;;;28.90;55.50;;;;;;5013443;28;20932;-46
2023/08/23 00:48:32;;;;;;;5.63;5.13;;;28.80;55.60;;;;;;5011164;28;20186;-46
2023/08/23 00:50:58;;;;;;;6.13;4.93;;;28.80;55.60;;;;;;5013698;28;20680;-46
2023/08/23 00:53:24;;;;;;;7.90;5.80;;;28.80;55.70;;;;;;5013814;28;20205;-47
2023/08/23 00:55:50;;;;;;;6.00;5.13;;;28.70;55.80;;;;;;5012556;28;20515;-45
2023/08/23 00:58:15;;;;;;;6.90;5.03;;;28.70;55.90;;;;;;5013564;28;20222;-45
2023/08/23 01:00:41;;;;;;;7.40;5.80;;;28.50;56.30;;;;;;5013893;28;20359;-46
2023/08/23 01:03:07;;;;;;;5.67;5.07;;;28.40;56.80;;;;;;5012955;28;20696;-45
2023/08/23 01:05:47;;;;;;;6.63;4.77;;;28.40;56.80;;;;;;5013844;28;20436;-45
2023/08/23 01:08:22;;;;;;;6.27;5.00;;;28.40;56.60;;;;;;5013009;28;20666;-45
2023/08/23 01:11:03;;;;;;;5.30;4.90;;;28.30;56.80;;;;;;5013515;28;20455;-45
2023/08/23 01:13:40;;;;;;;4.87;4.47;;;28.20;57.10;;;;;;5013831;28;20432;-45
2023/08/23 01:16:10;;;;;;;6.90;5.33;;;28.20;57.00;;;;;;5013064;28;20425;-45
2023/08/23 01:18:37;;;;;;;7.10;4.90;;;28.30;56.70;;;;;;5013412;28;20484;-45
2023/08/23 01:21:06;;;;;;;5.13;4.73;;;28.20;56.50;;;;;;5011333;28;20849;-45
2023/08/23 01:23:33;;;;;;;5.90;5.07;;;28.30;56.50;;;;;;5013441;28;20791;-46
2023/08/23 01:25:58;;;;;;;5.37;4.77;;;28.30;56.40;;;;;;5012775;28;20433;-48
2023/08/23 01:28:24;;;;;;;4.70;4.40;;;28.30;56.50;;;;;;5012104;28;20442;-48
2023/08/23 01:30:50;;;;;;;6.23;5.43;;;28.30;56.40;;;;;;5013440;28;20221;-47
2023/08/23 01:33:28;;;;;;;6.87;5.53;;;28.20;56.60;;;;;;5012808;28;20248;-46
2023/08/23 01:36:02;;;;;;;6.67;5.73;;;28.20;56.70;;;;;;4996815;28;20438;-49
2023/08/23 01:38:29;;;;;;;5.40;5.00;;;28.10;56.90;;;;;;5013060;28;20490;-47
2023/08/23 01:40:56;;;;;;;8.57;5.63;;;27.90;57.40;;;;;;5012657;28;20429;-45
2023/08/23 01:43:22;;;;;;;5.60;4.50;;;27.70;57.70;;;;;;5013136;28;20429;-47
2023/08/23 01:45:48;;;;;;;5.43;4.70;;;27.60;57.90;;;;;;5013320;28;20925;-46
2023/08/23 01:48:13;;;;;;;6.30;5.00;;;27.70;57.90;;;;;;5010449;28;20479;-45
2023/08/23 01:50:40;;;;;;;5.53;5.03;;;27.70;57.60;;;;;;5012736;28;20204;-46
2023/08/23 01:53:06;;;;;;;7.20;4.90;;;27.80;57.50;;;;;;5012418;28;20596;-45
2023/08/23 01:55:31;;;;;;;6.60;5.57;;;27.80;57.20;;;;;;5013152;28;20429;-45
2023/08/23 01:57:57;;;;;;;5.60;4.63;;;27.80;57.10;;;;;;5012132;28;20237;-46
2023/08/23 02:00:23;;;;;;;4.87;4.47;;;27.90;57.00;;;;;;5011024;28;20189;-45
2023/08/23 02:02:49;;;;;;;5.90;5.40;;;27.90;56.90;;;;;;5012523;28;20469;-45
2023/08/23 02:05:15;;;;;;;5.07;4.67;;;27.90;57.00;;;;;;5012230;28;20855;-46
2023/08/23 02:07:40;;;;;;;5.43;4.93;;;27.80;56.90;;;;;;5011997;28;20688;-45
2023/08/23 02:10:06;;;;;;;5.87;5.37;;;27.80;57.00;;;;;;5012791;28;20221;-47
2023/08/23 02:12:32;;;;;;;6.20;5.10;;;27.80;56.90;;;;;;5012223;28;20182;-46
2023/08/23 02:14:57;;;;;;;6.17;5.37;;;27.70;57.00;;;;;;5011073;28;20424;-45
2023/08/23 02:17:24;;;;;;;5.90;5.27;;;27.70;57.00;;;;;;5023056;28;20673;-45
2023/08/23 02:19:49;;;;;;;7.13;5.80;;;27.70;57.30;;;;;;5012770;28;20198;-46
2023/08/23 02:22:15;;;;;;;5.40;4.90;;;27.60;57.20;;;;;;5011991;28;20433;-45
2023/08/23 02:24:40;;;;;;;6.87;4.90;;;27.60;57.30;;;;;;5012434;28;20316;-47
2023/08/23 02:27:06;;;;;;;6.30;5.80;;;27.60;57.40;;;;;;5012033;28;20668;-47
2023/08/23 02:29:31;;;;;;;6.00;5.40;;;27.60;57.50;;;;;;5004960;28;20204;-46
2023/08/23 02:31:57;;;;;;;5.67;5.17;;;27.50;57.50;;;;;;5012073;28;20323;-46
2023/08/23 02:34:22;;;;;;;6.30;5.67;;;27.50;57.70;;;;;;5010425;28;20221;-46
2023/08/23 02:36:48;;;;;;;5.70;5.27;;;27.40;57.90;;;;;;5008342;28;20216;-46
2023/08/23 02:39:14;;;;;;;5.53;4.97;;;27.40;57.90;;;;;;5012668;28;20194;-46
2023/08/23 02:41:40;;;;;;;6.50;4.90;;;27.50;57.90;;;;;;5010116;28;20547;-46
2023/08/23 02:44:05;;;;;;;6.30;5.77;;;27.40;58.00;;;;;;5012394;28;20551;-46
2023/08/23 02:46:31;;;;;;;6.47;5.93;;;27.30;58.10;;;;;;5011699;28;20312;-48
2023/08/23 02:48:56;;;;;;;5.33;4.83;;;27.30;58.20;;;;;;5012516;28;20704;-45
2023/08/23 02:51:22;;;;;;;6.70;5.83;;;27.20;58.50;;;;;;5011765;28;20539;-45
2023/08/23 02:53:47;;;;;;;6.23;5.73;;;27.20;58.60;;;;;;5012122;28;20198;-45
2023/08/23 02:56:13;;;;;;;6.27;5.77;;;27.20;58.40;;;;;;5011677;28;20566;-46
2023/08/23 02:58:38;;;;;;;6.17;4.70;;;27.30;58.30;;;;;;5012204;28;20249;-46
2023/08/23 03:01:04;;;;;;;6.00;5.40;;;27.20;58.20;;;;;;5007268;28;20232;-45
2023/08/23 03:03:30;;;;;;;6.03;5.53;;;27.20;58.10;;;;;;5012401;28;20221;-45
2023/08/23 03:05:57;;;;;;;7.43;5.77;;;27.20;58.20;;;;;;5011522;28;20201;-47
2023/08/23 03:08:24;;;;;;;6.93;4.93;;;27.20;58.00;;;;;;5011148;28;20194;-45
2023/08/23 03:10:50;;;;;;;6.53;4.97;;;27.10;58.10;;;;;;5012004;28;20433;-49
2023/08/23 03:13:16;;;;;;;5.20;4.80;;;27.10;58.20;;;;;;5011815;28;20766;-46
2023/08/23 03:15:42;;;;;;;6.53;5.00;;;27.10;58.20;;;;;;5016485;28;20208;-46
2023/08/23 03:18:07;;;;;;;7.03;6.40;;;27.00;58.10;;;;;;5015610;28;20225;-45
2023/08/23 03:20:33;;;;;;;6.23;5.50;;;27.00;58.10;;;;;;5015706;28;20198;-47
2023/08/23 03:22:59;;;;;;;8.17;6.07;;;27.00;58.10;;;;;;5014943;28;20626;-45
2023/08/23 03:25:25;;;;;;;5.77;5.20;;;27.00;58.70;;;;;;5015676;28;20248;-45
2023/08/23 03:27:52;;;;;;;8.93;5.97;;;27.00;58.20;;;;;;5014437;28;20272;-46
2023/08/23 03:30:18;;;;;;;7.30;5.40;;;27.00;58.20;;;;;;5007336;28;20239;-46
2023/08/23 03:32:44;;;;;;;8.27;5.53;;;27.00;58.30;;;;;;5012881;28;20849;-48
2023/08/23 03:35:10;;;;;;;6.47;5.87;;;27.00;58.30;;;;;;5015444;28;20433;-45
2023/08/23 03:37:35;;;;;;;5.53;5.03;;;27.00;58.30;;;;;;5014604;28;20226;-45
2023/08/23 03:40:02;;;;;;;5.10;4.70;;;26.90;58.20;;;;;;5015387;28;20194;-45
2023/08/23 03:42:28;;;;;;;6.60;6.00;;;26.90;58.30;;;;;;5014682;28;20812;-47
2023/08/23 03:44:53;;;;;;;6.83;5.00;;;26.80;58.40;;;;;;5015601;28;20433;-47
2023/08/23 03:47:19;;;;;;;5.53;5.10;;;26.80;58.40;;;;;;5014410;28;20752;-45
2023/08/23 03:49:44;;;;;;;8.60;5.73;;;26.80;58.50;;;;;;5015045;28;20657;-45
2023/08/23 03:52:10;;;;;;;6.77;5.47;;;26.80;58.70;;;;;;5014539;28;20291;-45
2023/08/23 03:54:36;;;;;;;5.80;5.30;;;26.80;58.70;;;;;;5015122;28;20233;-46
2023/08/23 03:57:01;;;;;;;6.17;5.60;;;26.70;58.90;;;;;;5014322;28;20264;-46
2023/08/23 03:59:27;;;;;;;5.80;5.20;;;26.70;58.90;;;;;;5013576;28;20317;-46
2023/08/23 04:01:52;;;;;;;6.67;6.07;;;26.70;58.80;;;;;;5013404;28;20229;-47
2023/08/23 04:04:18;;;;;;;6.20;5.70;;;26.80;59.00;;;;;;5014725;28;20248;-45
2023/08/23 04:06:44;;;;;;;5.80;5.30;;;26.70;58.90;;;;;;5014163;28;20715;-45
2023/08/23 04:09:09;;;;;;;5.53;4.97;;;26.70;58.90;;;;;;5014850;28;20189;-49
2023/08/23 04:11:35;;;;;;;6.83;6.23;;;26.70;59.00;;;;;;5014278;28;20228;-48
2023/08/23 04:14:01;;;;;;;9.40;5.63;;;26.70;58.90;;;;;;5014951;28;20190;-46
2023/08/23 04:16:26;;;;;;;6.97;4.70;;;26.70;59.10;;;;;;5023105;28;20668;-46
2023/08/23 04:18:54;;;;;;;8.70;5.43;;;26.60;59.20;;;;;;5015313;28;20222;-45
2023/08/23 04:21:19;;;;;;;6.00;5.40;;;26.50;59.20;;;;;;5014094;28;20205;-46
2023/08/23 04:23:45;;;;;;;7.10;6.40;;;26.60;59.20;;;;;;5014496;28;20433;-45
2023/08/23 04:26:10;;;;;;;6.27;5.40;;;26.60;59.00;;;;;;5012394;28;20217;-45
2023/08/23 04:28:37;;;;;;;6.23;5.63;;;26.60;58.80;;;;;;5011298;28;20229;-46
2023/08/23 04:31:03;;;;;;;6.67;5.50;;;26.60;58.60;;;;;;5013829;28;20194;-46
2023/08/23 04:33:29;;;;;;;7.30;5.50;;;26.50;58.60;;;;;;5012890;28;20429;-44
2023/08/23 04:35:54;;;;;;;6.40;5.80;;;26.50;58.60;;;;;;5013983;28;20429;-50
2023/08/23 04:38:20;;;;;;;6.50;5.90;;;26.40;59.10;;;;;;5014009;28;20230;-45
2023/08/23 04:40:46;;;;;;;8.07;6.33;;;26.30;59.50;;;;;;5014047;28;20186;-45
2023/08/23 04:43:11;;;;;;;6.17;5.60;;;26.20;59.80;;;;;;5013729;28;20197;-45
2023/08/23 04:45:38;;;;;;;7.63;6.40;;;26.20;60.00;;;;;;5014349;28;20646;-45
2023/08/23 04:48:05;;;;;;;6.17;5.57;;;26.30;59.80;;;;;;5012504;28;20594;-45
2023/08/23 04:50:33;;;;;;;6.60;6.10;;;26.30;59.60;;;;;;5013776;28;20433;-45
2023/08/23 04:52:59;;;;;;;7.37;6.07;;;26.20;59.50;;;;;;5011888;28;20646;-46
2023/08/23 04:55:24;;;;;;;6.67;6.10;;;26.30;59.60;;;;;;5013907;28;20924;-45
2023/08/23 04:57:50;;;;;;;6.20;5.70;;;26.30;59.60;;;;;;5013069;28;20229;-45
2023/08/23 05:00:16;;;;;;;7.87;6.90;;;26.40;59.60;;;;;;5013702;28;20252;-49
2023/08/23 05:02:41;;;;;;;8.73;6.00;;;26.40;59.60;;;;;;5013202;28;20567;-49
2023/08/23 05:05:07;;;;;;;6.33;5.93;;;26.40;59.70;;;;;;5013821;28;20194;-46
2023/08/23 05:07:36;;;;;;;6.77;5.77;;;26.40;60.00;;;;;;5013281;28;20189;-45
2023/08/23 05:10:02;;;;;;;8.10;7.07;;;26.40;60.00;;;;;;5013667;28;20194;-45
2023/08/23 05:12:27;;;;;;;9.60;6.03;;;26.40;60.00;;;;;;5013144;28;20459;-47
2023/08/23 05:14:53;;;;;;;6.90;6.30;;;26.40;59.90;;;;;;5013836;28;20650;-48
2023/08/23 05:17:19;;;;;;;7.47;6.17;;;26.50;59.90;;;;;;5010117;28;20271;-46
2023/08/23 05:19:44;;;;;;;6.60;6.10;;;26.40;59.70;;;;;;5011739;28;20201;-46
2023/08/23 05:22:10;;;;;;;7.00;6.40;;;26.50;59.90;;;;;;5012739;28;20194;-45
2023/08/23 05:24:36;;;;;;;7.20;6.60;;;26.40;60.00;;;;;;5013580;28;20198;-46
2023/08/23 05:27:02;;;;;;;6.23;5.63;;;26.50;60.00;;;;;;5012688;28;20193;-45
2023/08/23 05:29:27;;;;;;;6.80;6.20;;;26.50;59.90;;;;;;5013393;28;20197;-46
2023/08/23 05:31:53;;;;;;;8.03;6.73;;;26.50;59.90;;;;;;5012644;28;20935;-46
2023/08/23 05:34:18;;;;;;;7.60;6.47;;;26.40;60.10;;;;;;5013079;28;20269;-48
2023/08/23 05:36:44;;;;;;;7.70;6.93;;;26.40;60.30;;;;;;5011526;28;20190;-45
2023/08/23 05:39:09;;;;;;;7.20;6.50;;;26.40;60.40;;;;;;5012146;28;20198;-45
2023/08/23 05:41:35;;;;;;;7.03;6.33;;;26.40;60.80;;;;;;5012628;28;20194;-49
2023/08/23 05:44:01;;;;;;;7.30;6.60;;;26.10;61.70;;;;;;5012888;28;20788;-45
2023/08/23 05:46:26;;;;;;;8.43;7.23;;;26.20;62.50;;;;;;5011112;28;20237;-46
2023/08/23 05:48:52;;;;;;;7.80;7.10;;;26.30;61.50;;;;;;5013066;28;20186;-46
2023/08/23 05:51:17;;;;;;;8.20;6.07;;;26.40;61.20;;;;;;5012521;28;20281;-48
2023/08/23 05:53:43;;;;;;;7.30;6.70;;;26.60;60.90;;;;;;5012634;28;20228;-46
2023/08/23 05:56:08;;;;;;;6.70;6.20;;;26.70;60.50;;;;;;5012374;28;20261;-45
2023/08/23 05:58:34;;;;;;;9.63;6.17;;;26.70;60.80;;;;;;5012975;28;20685;-46
2023/08/23 06:01:00;;;;;;;7.33;6.60;;;26.60;61.30;;;;;;5012460;28;20189;-45
2023/08/23 06:03:26;;;;;;;9.80;6.40;;;26.60;61.40;;;;;;5012646;28;20273;-50
2023/08/23 06:05:55;;;;;;;9.80;6.63;;;26.70;61.10;;;;;;5012544;28;20202;-48
2023/08/23 06:08:21;;;;;;;7.90;7.10;;;26.90;60.70;;;;;;5012575;28;20516;-47
2023/08/23 06:10:46;;;;;;;13.77;7.40;;;27.00;60.10;;;;;;5007906;28;20500;-48
2023/08/23 06:13:12;;;;;;;9.83;7.10;;;27.00;59.80;;;;;;5006317;28;20444;-45
2023/08/23 06:15:37;;;;;;;8.33;6.80;;;27.00;59.70;;;;;;5014861;28;20577;-48
2023/08/23 06:18:03;;;;;;;8.13;7.30;;;27.20;59.30;;;;;;5013752;28;20316;-50
2023/08/23 06:20:29;;;;;;;7.77;6.90;;;27.30;58.90;;;;;;5012534;28;20221;-45
2023/08/23 06:22:56;;;;;;;8.00;7.20;;;27.40;58.70;;;;;;5011812;28;20190;-46
2023/08/23 06:25:22;;;;;;;7.60;6.87;;;27.60;58.60;;;;;;5012705;28;20256;-48
2023/08/23 06:27:48;;;;;;;8.93;8.10;;;27.70;58.20;;;;;;5011652;28;20434;-47
2023/08/23 06:30:17;;;;;;;8.37;7.67;;;27.90;57.60;;;;;;5012382;28;20448;-47
2023/08/23 06:32:49;;;;;;;12.57;7.80;;;28.00;57.20;;;;;;5012066;28;20193;-46
2023/08/23 06:35:16;;;;;;;9.47;7.50;;;28.20;57.00;;;;;;5012260;28;20429;-54
2023/08/23 06:37:42;;;;;;;8.60;7.50;;;28.30;56.50;;;;;;5010103;28;20896;-44
2023/08/23 06:40:12;;;;;;;8.53;7.27;;;28.40;56.00;;;;;;5012238;28;20416;-45
2023/08/23 06:42:39;;;;;;;8.37;7.70;;;28.60;55.80;;;;;;5011685;28;20435;-45
2023/08/23 06:45:06;;;;;;;8.63;7.50;;;28.70;55.40;;;;;;5012332;28;20421;-46
2023/08/23 06:47:33;;;;;;;7.80;7.10;;;28.80;54.60;;;;;;5011638;28;20465;-47
2023/08/23 06:49:58;;;;;;;7.73;6.80;;;29.00;54.20;;;;;;5012742;28;20435;-47
2023/08/23 06:52:25;;;;;;;7.90;7.20;;;29.10;54.40;;;;;;5015835;28;20425;-46
2023/08/23 06:54:50;;;;;;;8.77;7.80;;;29.20;54.00;;;;;;5016473;28;20260;-46
2023/08/23 06:57:16;;;;;;;8.27;7.33;;;29.40;53.60;;;;;;5015526;28;20488;-45
2023/08/23 06:59:41;;;;;;;8.57;7.70;;;29.40;53.40;;;;;;5016217;28;20186;-45
2023/08/23 07:02:07;;;;;;;7.93;6.73;;;29.60;53.20;;;;;;5015376;28;20190;-46
2023/08/23 07:04:32;;;;;;;7.30;6.63;;;29.70;52.80;;;;;;5014562;28;20645;-47
2023/08/23 07:06:58;;;;;;;8.47;7.70;;;29.80;52.40;;;;;;5015214;28;20198;-47
2023/08/23 07:09:24;;;;;;;8.60;7.60;;;29.90;52.20;;;;;;5015687;28;20239;-45
2023/08/23 07:11:49;;;;;;;10.00;7.07;;;30.00;52.00;;;;;;5015403;28;20193;-45
2023/08/23 07:14:15;;;;;;;8.10;7.27;;;30.10;51.70;;;;;;5015970;28;20753;-45
2023/08/23 07:16:40;;;;;;;6.77;6.27;;;30.30;51.30;;;;;;5018601;28;20220;-46
2023/08/23 07:19:06;;;;;;;8.70;7.90;;;30.30;50.90;;;;;;5015684;28;20249;-50
2023/08/23 07:21:31;;;;;;;7.60;7.00;;;30.20;50.90;;;;;;5015474;28;20684;-46
2023/08/23 07:23:57;;;;;;;7.63;6.93;;;30.40;50.90;;;;;;5015831;28;20201;-45
2023/08/23 07:26:24;;;;;;;7.40;6.80;;;30.60;50.30;;;;;;5014951;28;20228;-46
2023/08/23 07:28:49;;;;;;;7.40;6.60;;;30.80;50.10;;;;;;5015448;28;20194;-46
2023/08/23 07:31:15;;;;;;;7.90;6.80;;;30.90;49.90;;;;;;5013200;28;21031;-46
2023/08/23 07:33:41;;;;;;;7.13;6.53;;;31.00;49.30;;;;;;5015782;28;20198;-47
2023/08/23 07:36:07;;;;;;;8.67;7.03;;;31.00;49.40;;;;;;5010394;28;20221;-46
2023/08/23 07:38:33;;;;;;;7.80;7.10;;;31.10;49.20;;;;;;5015239;28;20237;-46
2023/08/23 07:41:00;;;;;;;7.43;6.67;;;31.20;49.10;;;;;;5014817;28;20495;-48
2023/08/23 07:43:26;;;;;;;8.03;7.23;;;31.40;49.10;;;;;;5013163;28;20201;-46
2023/08/23 07:45:57;;;;;;;7.60;6.57;;;31.40;48.60;;;;;;5015158;28;20947;-49
2023/08/23 07:48:23;;;;;;;7.70;7.00;;;31.60;48.00;;;;;;5015205;28;20186;-47
2023/08/23 07:50:53;;;;;;;6.97;6.27;;;31.70;47.70;;;;;;5015091;28;20798;-46
2023/08/23 07:53:19;;;;;;;7.20;6.50;;;31.40;48.00;;;;;;5014974;28;20433;-46
2023/08/23 07:55:45;;;;;;;10.40;6.83;;;31.60;48.00;;;;;;5015145;28;20778;-46
2023/08/23 07:58:14;;;;;;;6.20;5.80;;;31.70;47.70;;;;;;5012845;28;20289;-46
2023/08/23 08:00:39;;;;;;;6.60;5.90;;;31.80;47.90;;;;;;5014854;28;20198;-48
2023/08/23 08:03:06;;;;;;;8.80;6.70;;;32.00;47.50;;;;;;5013556;28;20428;-48
2023/08/23 08:05:34;;;;;;;7.10;6.40;;;32.30;46.40;;;;;;5014712;28;20194;-51
2023/08/23 08:08:00;;;;;;;6.50;6.00;;;32.40;45.60;;;;;;5014553;28;20853;-50
2023/08/23 08:10:26;;;;;;;6.97;6.33;;;32.50;45.40;;;;;;5014513;28;20441;-47
2023/08/23 08:12:51;;;;;;;6.63;6.03;;;32.60;45.30;;;;;;5014195;28;20453;-49
2023/08/23 08:15:17;;;;;;;8.10;7.40;;;32.70;44.90;;;;;;5014759;28;20815;-51
2023/08/23 08:17:43;;;;;;;8.77;5.70;;;32.80;44.60;;;;;;5023543;28;20713;-50
2023/08/23 08:20:09;;;;;;;6.23;5.70;;;32.90;44.50;;;;;;5014563;28;20292;-50
2023/08/23 08:22:36;;;;;;;6.40;5.80;;;33.10;43.90;;;;;;5013876;28;20269;-45
2023/08/23 08:25:02;;;;;;;6.33;5.83;;;33.10;44.20;;;;;;5013048;28;20433;-50
2023/08/23 08:27:27;;;;;;;6.47;5.87;;;33.20;43.00;;;;;;5014105;28;20786;-51
2023/08/23 08:29:53;;;;;;;7.37;5.60;;;33.20;43.50;;;;;;5011862;28;20659;-50
2023/08/23 08:32:18;;;;;;;6.97;6.43;;;33.30;43.60;;;;;;5014074;28;20656;-49
2023/08/23 08:34:44;;;;;;;6.73;6.03;;;33.30;42.80;;;;;;5014715;28;20194;-50
2023/08/23 08:37:11;;;;;;;6.83;6.17;;;33.20;43.80;;;;;;5012630;28;20256;-51
2023/08/23 08:39:36;;;;;;;6.23;5.73;;;33.20;43.60;;;;;;5014207;28;20205;-47
2023/08/23 08:42:02;;;;;;;7.47;6.20;;;33.20;43.90;;;;;;5010218;28;20448;-50
2023/08/23 08:44:28;;;;;;;6.20;5.80;;;33.10;43.30;;;;;;5014513;28;20202;-50
2023/08/23 08:46:53;;;;;;;6.50;5.90;;;33.20;43.50;;;;;;5013531;28;20229;-51
2023/08/23 08:49:19;;;;;;;6.13;5.70;;;33.30;43.50;;;;;;5014003;28;20583;-47
2023/08/23 08:51:49;;;;;;;7.77;7.00;;;33.30;43.60;;;;;;5011842;28;20200;-48
2023/08/23 08:54:19;;;;;;;11.00;6.50;;;33.30;44.30;;;;;;5014235;28;20277;-49
2023/08/23 08:56:47;;;;;;;6.83;6.07;;;33.40;43.40;;;;;;5013544;28;20417;-49
2023/08/23 08:59:15;;;;;;;6.60;6.00;;;33.50;43.20;;;;;;5014089;28;20476;-50
2023/08/23 09:01:42;;;;;;;7.70;6.53;;;33.40;43.00;;;;;;5013147;28;20428;-47
2023/08/23 09:04:08;;;;;;;6.50;5.93;;;33.10;43.80;;;;;;5014000;28;20425;-50
2023/08/23 09:06:36;;;;;;;6.77;6.10;;;33.10;44.50;;;;;;5002594;28;20483;-50
2023/08/23 09:09:03;;;;;;;7.47;6.83;;;33.40;44.10;;;;;;5013648;28;20564;-48
2023/08/23 09:11:32;;;;;;;6.30;5.80;;;33.60;43.60;;;;;;5012740;28;20452;-47
2023/08/23 09:13:57;;;;;;;7.83;6.13;;;33.70;43.30;;;;;;5013692;28;20433;-46
2023/08/23 09:16:24;;;;;;;7.90;6.37;;;33.90;43.10;;;;;;5013699;28;20417;-50
2023/08/23 09:18:50;;;;;;;6.83;6.20;;;34.00;42.80;;;;;;5013390;28;20268;-49
2023/08/23 09:21:19;;;;;;;9.07;6.27;;;34.20;42.70;;;;;;5013124;28;20429;-46
2023/08/23 09:23:46;;;;;;;8.50;5.90;;;34.20;42.80;;;;;;5013719;28;20429;-50
2023/08/23 09:26:12;;;;;;;6.70;6.10;;;34.30;42.70;;;;;;5012867;28;20552;-50
2023/08/23 09:28:38;;;;;;;7.27;6.30;;;34.30;42.50;;;;;;5006780;28;20832;-51
2023/08/23 09:31:03;;;;;;;9.23;6.20;;;34.30;42.60;;;;;;5012955;28;20243;-47
2023/08/23 09:33:34;;;;;;;7.17;6.20;;;34.50;42.60;;;;;;5013422;28;20455;-49
2023/08/23 09:36:00;;;;;;;7.00;6.50;;;34.60;42.40;;;;;;5012671;28;20189;-48
2023/08/23 09:38:25;;;;;;;6.83;6.13;;;34.70;42.10;;;;;;5013016;28;20480;-47
2023/08/23 09:40:51;;;;;;;6.93;6.07;;;34.90;42.40;;;;;;5013006;28;20186;-47
2023/08/23 09:43:17;;;;;;;7.17;6.60;;;35.00;41.60;;;;;;5011168;28;20233;-48
2023/08/23 09:45:47;;;;;;;9.90;6.17;;;35.30;41.30;;;;;;5012948;28;20228;-46
2023/08/23 09:48:17;;;;;;;6.80;6.23;;;35.40;41.50;;;;;;5011516;28;20821;-47
2023/08/23 09:50:42;;;;;;;6.93;6.30;;;35.50;40.80;;;;;;5013252;28;20429;-51
2023/08/23 09:53:27;;;;;;;6.40;5.80;;;35.70;40.70;;;;;;5012363;28;20774;-49
2023/08/23 09:55:53;;;;;;;6.13;5.63;;;35.90;40.40;;;;;;5013022;28;20239;-51
2023/08/23 09:58:19;;;;;;;6.87;6.10;;;36.10;40.30;;;;;;5012743;28;20849;-47
2023/08/23 10:00:51;;;;;;;6.73;6.03;;;36.20;40.10;;;;;;5013015;28;20424;-49
2023/08/23 10:03:20;;;;;;;5.93;5.50;;;36.30;40.40;;;;;;5012307;28;20782;-50
2023/08/23 10:05:47;;;;;;;6.30;5.70;;;36.50;39.60;;;;;;5012861;28;20519;-52
2023/08/23 10:08:14;;;;;;;6.47;5.90;;;36.60;39.20;;;;;;5012067;28;20440;-49
2023/08/23 10:10:43;;;;;;;6.80;6.20;;;36.80;39.00;;;;;;5011188;28;20507;-52
2023/08/23 10:13:09;;;;;;;7.43;6.10;;;36.90;39.00;;;;;;5012006;28;20439;-49
2023/08/23 10:15:40;;;;;;;6.30;5.80;;;37.10;38.30;;;;;;5013956;28;20420;-51
2023/08/23 10:18:12;;;;;;;6.70;6.10;;;37.20;38.50;;;;;;5018992;28;20323;-52
2023/08/23 10:20:38;;;;;;;6.40;5.67;;;37.30;38.00;;;;;;5012402;28;20428;-52
2023/08/23 10:23:18;;;;;;;6.37;5.87;;;37.40;37.60;;;;;;5012174;28;20435;-51
2023/08/23 10:25:45;;;;;;;6.87;6.20;;;37.50;37.20;;;;;;5016690;28;20196;-50
2023/08/23 10:28:13;;;;;;;7.00;5.53;;;37.50;37.40;;;;;;5018447;28;20424;-50
2023/08/23 10:30:41;;;;;;;6.00;5.40;;;37.50;36.70;;;;;;5019033;28;20520;-52
2023/08/23 10:33:08;;;;;;;6.57;5.97;;;37.50;37.10;;;;;;5018314;28;20424;-48
2023/08/23 10:35:35;;;;;;;6.20;5.70;;;37.60;37.20;;;;;;5017467;28;20420;-48
2023/08/23 10:38:04;;;;;;;6.53;6.00;;;37.50;37.00;;;;;;5018421;28;20487;-50
2023/08/23 10:40:31;;;;;;;6.40;5.80;;;37.50;36.40;;;;;;5019224;28;20431;-50
2023/08/23 10:42:57;;;;;;;7.07;6.47;;;37.60;36.30;;;;;;5018340;28;20420;-48
2023/08/23 10:45:22;;;;;;;6.47;5.83;;;37.70;36.20;;;;;;5019189;28;20436;-51
2023/08/23 10:47:51;;;;;;;7.70;6.23;;;37.80;36.20;;;;;;5018480;28;20363;-51
2023/08/23 10:50:19;;;;;;;5.53;5.03;;;37.80;35.70;;;;;;5019167;28;20205;-50
2023/08/23 10:52:47;;;;;;;5.63;5.23;;;38.00;35.10;;;;;;5018029;28;20423;-49
2023/08/23 10:55:12;;;;;;;5.67;5.27;;;38.10;35.40;;;;;;5018777;28;20436;-48
2023/08/23 10:57:38;;;;;;;6.60;6.00;;;38.30;34.00;;;;;;5018213;28;20529;-52
2023/08/23 11:00:04;;;;;;;5.43;5.03;;;38.20;33.90;;;;;;5019188;28;20832;-50
2023/08/23 11:02:31;;;;;;;5.90;5.40;;;38.30;34.10;;;;;;5016647;28;20643;-52
2023/08/23 11:04:57;;;;;;;5.40;4.90;;;38.40;33.80;;;;;;5018714;28;20447;-49
2023/08/23 11:07:26;;;;;;;5.90;5.03;;;38.10;34.40;;;;;;5018350;28;20428;-50
2023/08/23 11:09:52;;;;;;;5.70;5.30;;;38.20;34.90;;;;;;5018828;28;20201;-47
2023/08/23 11:12:18;;;;;;;9.33;5.10;;;38.40;34.50;;;;;;5017890;28;20416;-50
2023/08/23 11:14:44;;;;;;;5.87;5.47;;;38.50;33.60;;;;;;5018722;28;20431;-49
2023/08/23 11:17:11;;;;;;;6.43;5.90;;;38.50;33.00;;;;;;5020829;28;20272;-49
2023/08/23 11:19:38;;;;;;;6.67;5.93;;;38.20;33.50;;;;;;5018948;28;20189;-48
2023/08/23 11:22:03;;;;;;;5.90;5.40;;;38.30;33.60;;;;;;5018183;28;20427;-51
2023/08/23 11:24:30;;;;;;;6.40;6.00;;;38.30;33.40;;;;;;5018651;28;20427;-47
2023/08/23 11:26:56;;;;;;;7.03;5.47;;;38.10;34.10;;;;;;5018296;28;20427;-50
2023/08/23 11:29:22;;;;;;;7.30;5.33;;;38.20;33.80;;;;;;5014294;28;20426;-52
2023/08/23 11:31:55;;;;;;;5.77;5.27;;;38.50;34.40;;;;;;5009039;28;20209;-47
2023/08/23 11:34:21;;;;;;;6.00;5.50;;;38.70;33.90;;;;;;5018391;28;20221;-52
2023/08/23 11:36:46;;;;;;;5.37;4.80;;;38.90;33.50;;;;;;5016914;28;20506;-49
2023/08/23 11:39:13;;;;;;;7.93;5.50;;;38.90;32.70;;;;;;5015391;28;20287;-53
2023/08/23 11:41:40;;;;;;;5.43;4.93;;;38.80;32.80;;;;;;5014828;28;20190;-49
2023/08/23 11:44:07;;;;;;;5.73;5.10;;;38.60;32.70;;;;;;5015385;28;20417;-49
2023/08/23 11:46:37;;;;;;;5.30;4.80;;;38.40;33.40;;;;;;5014521;28;20846;-52
2023/08/23 11:49:07;;;;;;;5.20;4.80;;;38.50;33.30;;;;;;5015256;28;20438;-52
2023/08/23 11:51:44;;;;;;;5.97;5.47;;;38.60;33.60;;;;;;5014956;28;20436;-52
2023/08/23 11:54:10;;;;;;;4.97;4.57;;;38.80;33.10;;;;;;5014952;28;20440;-50
2023/08/23 11:56:43;;;;;;;9.00;4.77;;;38.90;32.60;;;;;;5013256;28;20438;-50
2023/08/23 11:59:10;;;;;;;4.93;4.57;;;39.00;32.70;;;;;;5015000;28;20522;-51
2023/08/23 12:01:38;;;;;;;5.57;5.07;;;39.10;32.20;;;;;;5014303;28;20460;-52
2023/08/23 12:04:05;;;;;;;5.20;4.80;;;39.00;31.80;;;;;;5014965;28;20467;-51
2023/08/23 12:06:30;;;;;;;8.03;5.23;;;38.90;32.10;;;;;;5014544;28;20468;-49
2023/08/23 12:08:56;;;;;;;5.57;5.10;;;39.00;32.40;;;;;;5014985;28;20432;-48
2023/08/23 12:11:21;;;;;;;7.23;4.93;;;39.00;32.10;;;;;;5014213;28;20211;-48
2023/08/23 12:13:47;;;;;;;5.73;5.17;;;38.90;32.70;;;;;;5015021;28;20549;-49
2023/08/23 12:16:13;;;;;;;5.13;4.73;;;39.10;32.10;;;;;;5020757;28;20228;-48
2023/08/23 12:18:41;;;;;;;8.17;5.20;;;39.20;32.30;;;;;;5015747;28;20526;-48
2023/08/23 12:21:06;;;;;;;5.50;5.10;;;39.30;31.60;;;;;;5013544;28;20307;-48
2023/08/23 12:23:32;;;;;;;8.00;5.73;;;39.30;31.70;;;;;;5013990;28;20467;-50
2023/08/23 12:25:58;;;;;;;5.77;5.23;;;39.30;32.40;;;;;;5014294;28;20198;-50
2023/08/23 12:28:23;;;;;;;7.40;6.03;;;39.30;32.10;;;;;;5013707;28;20186;-50
2023/08/23 12:30:49;;;;;;;5.50;5.13;;;39.40;31.50;;;;;;5014847;28;20197;-51
2023/08/23 12:33:15;;;;;;;5.20;4.80;;;39.50;31.50;;;;;;5013892;28;20189;-52
2023/08/23 12:35:41;;;;;;;4.80;4.40;;;39.50;31.40;;;;;;5013955;28;20185;-49
2023/08/23 12:38:07;;;;;;;6.30;5.07;;;39.60;31.90;;;;;;5013791;28;20228;-52
2023/08/23 12:40:33;;;;;;;5.10;4.80;;;39.90;31.90;;;;;;5014422;28;20416;-50
2023/08/23 12:42:58;;;;;;;6.37;5.87;;;39.90;31.10;;;;;;5013717;28;20193;-52